La Crescenta, California
Current Conditions -  °F | °C
As of 4:53 PM on Thursday 27 Nov 2014 (Local Time) from KBUR Reporting Station
Clear Clear  
Wind Chill: 81°   Ceiling: Unl
Heat Index: 81°   Visibility: 10mi
Dew Point: 28°   Wind: 3mph
Humidity: 14%   Direction: 100°E
Pressure: 30.01"   Gusts: NA
Location:  34.22°N, 118.24°W
Report Text: KBUR 280053Z 10003KT 10SM CLR 27/M02 A3001 RMK AO2 SLP151 T02721022
Loading
Personal Weather Stations






























Interactive Weather Map New forecast layout! Learn more

10-Day Weather Forecast

Advertisements
Track Severe Weather on mobile